Time;durP1;ratioP1;P1;durP2;ratioP2;P2;SDS_P1;SDS_P2;PMS_P1;PMS_P2;Temp;Humidity;BMP_temperature;BMP_pressure;BME280_temperature;BME280_humidity;BME280_pressure;Samples;Min_cycle;Max_cycle;Signal;HPM_P1;HPM_P2
2022/01/24 00:01:51;;;;;;;39.15;10.48;;;;;;;2.80;70.89;101875.44;5061755;28;20040;-56
2022/01/24 00:04:18;;;;;;;32.50;11.77;;;;;;;2.78;71.50;101866.81;5074569;28;20058;-55
2022/01/24 00:06:45;;;;;;;32.83;11.13;;;;;;;2.76;71.86;101870.94;5066215;28;20055;-56
2022/01/24 00:09:12;;;;;;;34.08;11.40;;;;;;;2.77;71.44;101862.47;5069070;28;20099;-53
2022/01/24 00:11:58;;;;;;;34.00;11.05;;;;;;;2.75;71.19;101866.63;5069058;28;20107;-55
2022/01/24 00:14:59;;;;;;;33.10;11.40;;;;;;;2.71;71.34;101867.25;5069477;28;20041;-54
2022/01/24 00:17:18;;;;;;;35.97;10.75;;;;;;;2.68;72.08;101865.41;5069616;28;20048;-55
2022/01/24 00:28:04;;;;;;;34.38;10.73;;;;;;;2.66;71.70;101873.75;5063211;28;20053;-52
2022/01/24 00:30:31;;;;;;;33.78;11.48;;;;;;;2.67;72.26;101884.06;5069146;28;20049;-57
2022/01/24 00:32:58;;;;;;;38.85;13.88;;;;;;;2.68;72.26;101887.53;5063633;28;20625;-57
2022/01/24 00:35:25;;;;;;;36.10;12.27;;;;;;;2.73;72.58;101886.09;5061057;28;20045;-56
2022/01/24 00:37:51;;;;;;;34.03;11.98;;;;;;;2.77;71.23;101893.19;5058429;28;20098;-54
2022/01/24 00:40:18;;;;;;;40.08;12.27;;;;;;;2.79;72.36;101890.72;5062384;28;20149;-58
2022/01/24 00:42:55;;;;;;;32.08;11.10;;;;;;;2.74;70.98;101880.22;5061173;28;20604;-53
2022/01/24 00:45:31;;;;;;;;;;;;;;;2.66;71.11;101883.97;5055890;28;20044;-58
2022/01/24 00:48:20;;;;;;;;;;;;;;;2.61;72.62;101877.72;5059750;28;19920;-55
2022/01/24 00:56:18;;;;;;;39.88;12.07;;;;;;;2.61;72.37;101870.03;5061435;28;20040;-56
2022/01/24 00:58:44;;;;;;;42.85;14.02;;;;;;;2.63;72.02;101871.03;5063764;28;20074;-57
2022/01/24 01:01:12;;;;;;;34.00;12.05;;;;;;;2.66;72.00;101878.84;5057992;28;20056;-52
2022/01/24 01:03:39;;;;;;;37.90;11.52;;;;;;;2.71;70.98;101872.34;5062969;28;20048;-59
2022/01/24 01:06:08;;;;;;;39.30;11.10;;;;;;;2.73;71.15;101878.44;5061612;28;20079;-57
2022/01/24 01:19:54;;;;;;;38.88;14.77;;;;;;;2.75;70.82;101869.19;5060811;28;20056;-58
2022/01/24 01:22:22;;;;;;;37.58;11.73;;;;;;;2.78;72.16;101869.38;5059200;28;20044;-57
2022/01/24 01:24:53;;;;;;;36.97;13.30;;;;;;;2.80;72.09;101867.78;5066008;28;20446;-55
2022/01/24 01:27:27;;;;;;;39.00;12.90;;;;;;;2.77;70.86;101867.59;5062323;28;20040;-55
2022/01/24 01:30:01;;;;;;;37.03;12.10;;;;;;;2.77;71.52;101866.72;5060401;28;20056;-56
2022/01/24 01:32:51;;;;;;;37.83;13.20;;;;;;;2.77;71.98;101865.03;5062932;28;20520;-58
2022/01/24 01:35:48;;;;;;;37.72;12.00;;;;;;;2.76;70.96;101863.25;5058263;28;20063;-55
2022/01/24 01:38:31;;;;;;;40.47;12.73;;;;;;;2.79;71.09;101860.91;5063951;28;20090;-53
2022/01/24 01:54:56;;;;;;;35.97;13.00;;;;;;;2.81;71.41;101882.31;5063823;28;20052;-55
2022/01/24 01:57:23;;;;;;;37.90;11.88;;;;;;;2.79;70.90;101881.38;5061493;28;20110;-54
2022/01/24 01:59:50;;;;;;;38.90;12.65;;;;;;;2.77;71.23;101879.50;5063483;28;20044;-56
2022/01/24 02:02:16;;;;;;;38.20;12.65;;;;;;;2.76;71.21;101881.19;5062636;28;20580;-56
2022/01/24 02:04:43;;;;;;;33.22;11.20;;;;;;;2.75;71.22;101874.31;5056289;28;20040;-55
2022/01/24 02:07:13;;;;;;;37.72;12.80;;;;;;;2.73;71.51;101865.63;5060335;28;20052;-55
2022/01/24 02:09:42;;;;;;;40.10;13.82;;;;;;;2.73;71.89;101865.63;5056587;28;20517;-53
2022/01/24 02:12:10;;;;;;;38.35;12.20;;;;;;;2.76;71.07;101863.25;5061054;28;20041;-56
2022/01/24 02:14:42;;;;;;;47.47;15.30;;;;;;;2.79;72.15;101866.00;5055138;28;20438;-54
2022/01/24 02:17:15;;;;;;;41.75;12.50;;;;;;;2.79;71.03;101866.00;5055785;28;20071;-57
2022/01/24 02:20:25;;;;;;;39.05;12.55;;;;;;;2.79;70.81;101873.69;5058345;28;20048;-56
2022/01/24 02:22:49;;;;;;;39.65;12.43;;;;;;;2.81;70.80;101872.09;5055590;28;20048;-52
2022/01/24 02:25:32;;;;;;;42.00;12.55;;;;;;;2.82;70.62;101871.31;5061932;28;20499;-58
2022/01/24 02:28:02;;;;;;;43.88;14.93;;;;;;;2.83;70.57;101862.84;5062633;28;20454;-56
2022/01/24 02:30:49;;;;;;;45.15;14.35;;;;;;;2.83;72.03;101862.84;5058831;28;20541;-51
2022/01/24 02:33:16;;;;;;;39.75;13.93;;;;;;;2.86;70.62;101853.56;5061622;28;20048;-58
2022/01/24 02:35:45;;;;;;;35.70;12.70;;;;;;;2.87;71.89;101857.91;5055836;28;20040;-59
2022/01/24 02:38:35;;;;;;;41.78;12.77;;;;;;;2.88;71.45;101858.00;5055439;28;20056;-57
2022/01/24 02:49:18;;;;;;;43.33;13.00;;;;;;;2.76;71.46;101855.59;5058771;28;20729;-57
2022/01/24 02:51:46;;;;;;;36.92;12.13;;;;;;;2.76;71.75;101855.59;5056741;28;20828;-56
2022/01/24 02:54:30;;;;;;;35.45;12.40;;;;;;;2.73;71.78;101855.41;5062497;28;20098;-56
2022/01/24 02:56:57;;;;;;;41.42;13.63;;;;;;;2.76;70.44;101850.47;5057699;28;20099;-58
2022/01/24 02:59:24;;;;;;;37.63;12.80;;;;;;;2.77;71.89;101847.09;5063222;28;20041;-58
2022/01/24 03:01:51;;;;;;;34.58;12.98;;;;;;;2.78;70.84;101853.13;5056757;28;20049;-54
2022/01/24 03:04:18;;;;;;;37.65;11.75;;;;;;;2.81;70.54;101858.44;5064563;28;20047;-55
2022/01/24 03:06:46;;;;;;;45.60;14.27;;;;;;;2.83;72.05;101854.25;5057268;28;20106;-50
2022/01/24 03:09:13;;;;;;;40.97;12.55;;;;;;;2.85;70.79;101849.25;5064165;28;20040;-57
2022/01/24 03:14:30;;;;;;;43.92;14.40;;;;;;;2.86;71.37;101835.63;5061969;28;20041;-52
2022/01/24 03:16:57;;;;;;;37.22;11.85;;;;;;;2.87;70.60;101837.44;5063268;28;20682;-56
2022/01/24 03:19:24;;;;;;;36.30;12.15;;;;;;;2.86;71.67;101830.50;5062728;28;20076;-53
2022/01/24 03:21:52;;;;;;;45.38;13.30;;;;;;;2.86;71.20;101840.75;5066353;28;20106;-56
2022/01/24 03:24:19;;;;;;;41.78;13.68;;;;;;;2.86;70.97;101835.63;5063455;28;20060;-53
2022/01/24 03:26:47;;;;;;;40.83;12.77;;;;;;;2.86;70.91;101836.53;5061788;28;20056;-54
2022/01/24 03:29:14;;;;;;;41.15;13.43;;;;;;;2.86;70.71;101831.41;5063851;28;20040;-54
2022/01/24 03:31:43;;;;;;;41.70;12.57;;;;;;;2.85;71.55;101824.53;5060707;28;20041;-55
2022/01/24 03:34:10;;;;;;;42.35;14.38;;;;;;;2.88;71.84;101823.81;5063357;28;20167;-56
2022/01/24 03:36:36;;;;;;;42.08;13.45;;;;;;;2.89;71.16;101823.03;5059814;28;20055;-56
2022/01/24 03:39:03;;;;;;;38.53;12.85;;;;;;;2.87;71.71;101822.06;5060690;28;20515;-53
2022/01/24 03:41:30;;;;;;;37.58;12.30;;;;;;;2.85;71.62;101821.97;5063547;28;20092;-58
2022/01/24 03:44:02;;;;;;;40.35;13.23;;;;;;;2.85;71.42;101818.53;5063881;28;20103;-57
2022/01/24 03:46:46;;;;;;;38.88;11.75;;;;;;;2.79;71.82;101825.06;5061982;28;20136;-57
2022/01/24 03:49:45;;;;;;;33.15;12.27;;;;;;;2.77;71.39;101813.84;5058326;28;20110;-55
2022/01/24 03:51:59;;;;;;;38.13;13.07;;;;;;;2.75;71.52;101812.88;5064400;28;20045;-56
2022/01/24 03:54:26;;;;;;;35.28;11.65;;;;;;;2.71;71.39;101810.94;5065855;28;20048;-57
2022/01/24 03:56:52;;;;;;;39.60;12.35;;;;;;;2.74;70.96;101811.13;5064017;28;20056;-56
2022/01/24 03:59:19;;;;;;;38.17;12.57;;;;;;;2.76;71.56;101814.66;5065507;28;20048;-57
2022/01/24 04:01:46;;;;;;;33.28;11.73;;;;;;;2.78;71.16;101818.19;5060324;28;20052;-54
2022/01/24 04:04:13;;;;;;;40.55;12.88;;;;;;;2.78;71.67;101820.75;5061134;28;20040;-57
2022/01/24 04:06:40;;;;;;;40.55;13.00;;;;;;;2.82;70.48;101820.13;5063444;28;20101;-55
2022/01/24 04:09:06;;;;;;;40.47;12.48;;;;;;;2.81;71.63;101815.78;5063530;28;20060;-54
2022/01/24 04:11:37;;;;;;;38.00;13.38;;;;;;;2.83;71.64;101815.88;5062333;28;20040;-58
2022/01/24 04:14:23;;;;;;;;;;;;;;;2.79;71.33;101822.50;5059682;28;20130;-57
2022/01/24 04:17:07;;;;;;;39.58;12.98;;;;;;;2.85;70.43;101827.09;5057013;28;19966;-53
2022/01/24 04:22:32;;;;;;;33.85;10.77;;;;;;;2.82;70.85;101825.25;5060924;28;20044;-57
2022/01/24 04:25:00;;;;;;;;;;;;;;;2.77;71.00;101826.63;5064376;28;20443;-55
2022/01/24 04:27:28;;;;;;;31.13;11.15;;;;;;;2.78;70.24;101823.31;5060731;28;19974;-55
2022/01/24 04:29:55;;;;;;;35.08;11.70;;;;;;;2.81;70.25;101832.84;5062985;28;20542;-54
2022/01/24 04:32:22;;;;;;;32.75;11.77;;;;;;;2.81;70.54;101826.03;5059776;28;20053;-55
2022/01/24 04:34:51;;;;;;;33.08;10.98;;;;;;;2.82;70.20;101827.81;5064547;28;20114;-52
2022/01/24 04:37:17;;;;;;;37.05;12.85;;;;;;;2.81;71.55;101830.28;5064948;28;20446;-51
2022/01/24 04:39:44;;;;;;;33.22;11.80;;;;;;;2.79;71.48;101830.19;5059779;28;21726;-56
2022/01/24 04:42:17;;;;;;;29.52;9.48;;;;;;;2.79;70.88;101819.94;5064626;28;20067;-55
2022/01/24 04:45:09;;;;;;;30.20;9.93;;;;;;;2.78;70.11;101818.19;5062830;28;20056;-55
2022/01/24 04:47:37;;;;;;;34.20;11.38;;;;;;;2.79;71.07;101813.94;5061017;28;20044;-53
2022/01/24 04:52:59;;;;;;;29.58;12.07;;;;;;;2.82;71.41;101825.25;5055636;28;20474;-52
2022/01/24 04:55:26;;;;;;;33.28;10.95;;;;;;;2.83;71.05;101816.78;5060840;28;20675;-57
2022/01/24 04:57:52;;;;;;;31.70;10.40;;;;;;;2.85;71.60;101823.66;5062214;28;20052;-57
2022/01/24 05:00:20;;;;;;;33.60;11.18;;;;;;;2.85;70.59;101826.19;5063821;28;20048;-58
2022/01/24 05:02:47;;;;;;;30.10;10.95;;;;;;;2.85;70.74;101827.09;5063409;28;20102;-57
2022/01/24 05:05:18;;;;;;;33.28;11.50;;;;;;;2.86;69.96;101822.84;5062135;28;20496;-57
2022/01/24 05:07:45;;;;;;;31.55;10.80;;;;;;;2.83;70.38;101816.78;5060093;28;20049;-55
2022/01/24 05:10:20;;;;;;;26.73;9.90;;;;;;;2.82;70.34;101817.56;5061364;28;20053;-54
2022/01/24 05:23:53;;;;;;;32.10;11.18;;;;;;;2.75;70.27;101812.88;5060259;28;20094;-56
2022/01/24 05:26:20;;;;;;;29.25;9.45;;;;;;;2.76;70.09;101813.75;5058831;28;20048;-56
2022/01/24 05:28:46;;;;;;;31.48;11.57;;;;;;;2.77;70.80;101816.41;5062209;28;20120;-54
2022/01/24 05:31:13;;;;;;;29.45;11.18;;;;;;;2.78;71.26;101812.19;5057099;28;20498;-57
2022/01/24 05:33:40;;;;;;;32.85;11.65;;;;;;;2.79;70.57;101817.38;5065464;28;20047;-55
2022/01/24 05:36:07;;;;;;;32.70;12.05;;;;;;;2.82;71.05;101822.69;5058035;28;20057;-56
2022/01/24 05:38:33;;;;;;;35.55;12.73;;;;;;;2.82;69.93;101830.38;5060780;28;20049;-55
2022/01/24 05:41:02;;;;;;;35.28;13.40;;;;;;;2.83;71.31;101832.13;5062888;28;20445;-55
2022/01/24 05:43:28;;;;;;;35.42;12.07;;;;;;;2.86;69.90;101836.53;5063427;28;20048;-55
2022/01/24 05:45:55;;;;;;;32.03;11.02;;;;;;;2.86;70.97;101840.75;5058958;28;20068;-59
2022/01/24 05:48:22;;;;;;;33.97;11.10;;;;;;;2.86;70.73;101835.63;5055855;28;20563;-56
2022/01/24 05:50:48;;;;;;;39.33;13.15;;;;;;;2.86;70.79;101845.88;5065652;28;20040;-57
2022/01/24 05:53:15;;;;;;;30.58;11.45;;;;;;;2.85;70.12;101849.25;5060211;28;20122;-51
2022/01/24 05:55:41;;;;;;;33.40;12.95;;;;;;;2.80;71.16;101842.19;5060061;28;20593;-58
2022/01/24 05:58:08;;;;;;;29.20;11.43;;;;;;;2.79;70.09;101840.41;5058898;28;20102;-54
2022/01/24 06:00:35;;;;;;;31.33;11.55;;;;;;;2.79;71.00;101848.09;5059522;28;20102;-53
2022/01/24 06:03:01;;;;;;;35.17;11.68;;;;;;;2.79;71.31;101850.66;5065127;28;20064;-59
2022/01/24 06:05:28;;;;;;;34.85;10.57;;;;;;;2.80;70.12;101852.41;5060349;28;20052;-58
2022/01/24 06:07:55;;;;;;;36.10;13.52;;;;;;;2.80;71.55;101859.19;5062831;28;20045;-59
2022/01/24 06:10:22;;;;;;;31.92;11.90;;;;;;;2.79;70.12;101860.00;5058112;28;20122;-54
2022/01/24 06:12:48;;;;;;;28.77;10.82;;;;;;;2.80;70.21;101862.66;5061033;28;20048;-56
2022/01/24 06:15:15;;;;;;;26.67;10.50;;;;;;;2.79;70.18;101855.78;5065293;28;20067;-55
2022/01/24 06:17:41;;;;;;;32.58;10.77;;;;;;;2.80;71.31;101857.53;5060425;28;20075;-58
2022/01/24 06:20:09;;;;;;;31.20;10.43;;;;;;;2.82;70.07;101861.06;5062173;28;20094;-53
2022/01/24 06:22:36;;;;;;;30.02;10.30;;;;;;;2.82;71.25;101860.19;5058885;28;20045;-57
2022/01/24 06:25:05;;;;;;;30.45;10.40;;;;;;;2.81;70.94;101866.97;5060756;28;20041;-54
2022/01/24 06:27:40;;;;;;;26.13;9.45;;;;;;;2.79;70.81;101876.25;5059203;28;20032;-55
2022/01/24 06:30:07;;;;;;;26.60;10.15;;;;;;;2.77;70.18;101870.13;5061471;28;20130;-53
2022/01/24 06:32:34;;;;;;;28.55;10.35;;;;;;;2.79;70.60;101873.69;5061119;28;20040;-58
2022/01/24 06:35:01;;;;;;;31.13;10.82;;;;;;;2.79;70.98;101881.38;5058823;28;20048;-58
2022/01/24 06:37:27;;;;;;;28.10;10.27;;;;;;;2.79;70.63;101886.47;5063006;28;20086;-56
2022/01/24 06:39:54;;;;;;;30.42;9.95;;;;;;;2.79;69.95;101878.81;5059812;28;20142;-52
2022/01/24 06:42:23;;;;;;;27.98;10.10;;;;;;;2.77;70.01;101888.06;5061324;28;20048;-55
2022/01/24 06:44:51;;;;;;;26.55;10.32;;;;;;;2.78;70.41;101894.06;5058505;28;20048;-57
2022/01/24 06:47:18;;;;;;;27.98;10.00;;;;;;;2.78;70.46;101892.41;5057558;28;20133;-56
2022/01/24 06:49:45;;;;;;;28.33;9.73;;;;;;;2.79;70.48;101891.59;5060940;28;20098;-53
2022/01/24 06:52:13;;;;;;;31.20;10.18;;;;;;;2.78;70.70;101900.09;5057474;28;20049;-56
2022/01/24 06:54:42;;;;;;;25.05;10.30;;;;;;;2.79;69.60;101901.84;5062829;28;20048;-52
2022/01/24 06:57:12;;;;;;;29.02;10.40;;;;;;;2.79;70.80;101891.59;5060276;28;20044;-57
2022/01/24 06:59:40;;;;;;;32.22;11.07;;;;;;;2.81;70.28;101894.25;5060580;28;20040;-51
2022/01/24 07:02:07;;;;;;;31.55;11.07;;;;;;;2.79;70.00;101889.03;5059403;28;20048;-57
2022/01/24 07:04:36;;;;;;;31.77;10.63;;;;;;;2.80;70.70;101887.34;5203050;22;20072;-54
2022/01/24 07:07:04;;;;;;;26.77;9.95;;;;;;;2.81;70.76;101890.00;5007476;28;20103;-58
2022/01/24 07:09:31;;;;;;;32.83;12.77;;;;;;;2.80;69.76;101883.13;5015180;28;20412;-53
2022/01/24 07:11:58;;;;;;;32.40;10.98;;;;;;;2.80;70.95;101893.38;5021013;28;20492;-55
2022/01/24 07:14:24;;;;;;;30.58;11.27;;;;;;;2.81;69.49;101892.56;5017663;28;20508;-56
2022/01/24 07:17:09;;;;;;;31.38;10.90;;;;;;;2.79;70.86;101899.28;5015865;28;20041;-52
2022/01/24 07:19:35;;;;;;;28.25;9.65;;;;;;;2.74;70.32;101898.13;5015324;28;20907;-57
2022/01/24 07:22:05;;;;;;;29.42;9.88;;;;;;;2.70;69.88;101885.91;5015222;28;20049;-52
2022/01/24 07:24:32;;;;;;;32.90;10.43;;;;;;;2.68;70.40;101887.53;5021281;28;20103;-56
2022/01/24 07:26:59;;;;;;;31.27;10.63;;;;;;;2.69;70.89;101891.84;5020639;28;20077;-55
2022/01/24 07:29:26;;;;;;;32.05;12.02;;;;;;;2.70;70.94;101891.94;5020280;28;20057;-57
2022/01/24 07:31:52;;;;;;;30.92;11.55;;;;;;;2.72;71.06;101886.91;5018236;28;20119;-58
2022/01/24 07:34:19;;;;;;;28.67;10.05;;;;;;;2.68;70.06;101887.53;5021091;28;20049;-54
2022/01/24 07:36:46;;;;;;;34.05;9.88;;;;;;;2.66;69.59;101873.75;5019004;28;20049;-53
2022/01/24 07:39:13;;;;;;;29.35;9.30;;;;;;;2.65;70.43;101878.00;5015986;28;20141;-57
2022/01/24 07:41:44;;;;;;;29.35;9.45;;;;;;;2.59;70.33;101881.84;5019313;28;20149;-53
2022/01/24 07:44:13;;;;;;;34.03;11.82;;;;;;;2.59;69.71;101881.84;5019637;28;20112;-55
2022/01/24 07:46:40;;;;;;;31.50;11.82;;;;;;;2.59;69.61;101881.84;5020558;28;20050;-55
2022/01/24 07:49:10;;;;;;;31.27;10.68;;;;;;;2.60;70.60;101886.19;5018950;28;20709;-56
2022/01/24 07:51:38;;;;;;;30.27;11.10;;;;;;;2.61;70.79;101890.50;5019780;28;20061;-56
2022/01/24 07:54:05;;;;;;;29.42;10.30;;;;;;;2.62;70.95;101898.28;5017200;28;20045;-58
2022/01/24 07:56:32;;;;;;;31.15;10.90;;;;;;;2.61;69.57;101900.75;5025247;28;20046;-58
2022/01/24 07:58:58;;;;;;;31.85;9.95;;;;;;;2.61;69.95;101900.75;5023053;28;20104;-58
2022/01/24 08:01:26;;;;;;;33.92;11.95;;;;;;;2.61;70.88;101900.75;5021062;28;20100;-53
2022/01/24 08:03:53;;;;;;;34.03;12.30;;;;;;;2.61;69.66;101901.63;5020415;28;20504;-57
2022/01/24 08:06:21;;;;;;;37.40;12.50;;;;;;;2.60;70.34;101898.97;5002727;28;20038;-57
2022/01/24 08:08:48;;;;;;;37.45;11.55;;;;;;;2.60;70.06;101906.66;5002442;28;20050;-54
2022/01/24 08:11:18;;;;;;;31.02;11.10;;;;;;;2.58;71.11;101898.88;5011609;28;22875;-55
2022/01/24 08:13:45;;;;;;;30.75;10.88;;;;;;;2.56;69.50;101897.91;5021885;28;20042;-54
2022/01/24 08:16:13;;;;;;;29.52;10.93;;;;;;;2.55;69.65;101897.03;5024974;28;20080;-59
2022/01/24 08:18:40;;;;;;;31.67;10.38;;;;;;;2.58;71.30;101896.31;5025857;28;20048;-56
2022/01/24 08:21:07;;;;;;;33.70;12.00;;;;;;;2.59;71.30;101902.31;5023184;28;20107;-55
2022/01/24 08:23:34;;;;;;;34.75;12.57;;;;;;;2.59;70.23;101907.44;5019676;28;20516;-57
2022/01/24 08:26:01;;;;;;;28.65;10.02;;;;;;;2.53;70.10;101913.94;5024794;28;21525;-55
2022/01/24 08:28:27;;;;;;;26.73;10.63;;;;;;;2.51;70.60;101915.56;5027988;28;20061;-51
2022/01/24 08:30:54;;;;;;;26.92;10.10;;;;;;;2.52;71.25;101917.31;5026463;28;20049;-56
2022/01/24 08:33:21;;;;;;;28.80;10.95;;;;;;;2.56;70.59;101921.81;5029279;28;20049;-55
2022/01/24 08:35:47;;;;;;;31.58;11.02;;;;;;;2.60;70.31;101928.00;5026643;28;20472;-57
2022/01/24 08:38:14;;;;;;;33.95;11.10;;;;;;;2.62;71.39;101922.97;5024005;28;20103;-55
2022/01/24 08:40:41;;;;;;;30.55;10.40;;;;;;;2.62;70.43;101916.19;5028695;28;20049;-56
2022/01/24 08:43:09;;;;;;;33.15;10.60;;;;;;;2.65;70.29;101916.38;5028592;28;20053;-54
2022/01/24 08:45:58;;;;;;;31.10;12.13;;;;;;;2.66;70.57;101915.56;5025278;28;20058;-55
2022/01/24 08:48:25;;;;;;;30.15;10.88;;;;;;;2.68;69.51;101919.13;5023647;28;20064;-55
2022/01/24 08:50:54;;;;;;;28.45;10.93;;;;;;;2.69;70.24;101920.88;5030006;28;20053;-58
2022/01/24 08:53:30;;;;;;;27.10;9.82;;;;;;;2.72;71.01;101924.41;5027353;28;20132;-58
2022/01/24 08:55:59;;;;;;;29.90;10.75;;;;;;;2.72;70.55;101920.19;5025462;28;20144;-57
2022/01/24 08:58:27;;;;;;;27.98;9.85;;;;;;;2.72;70.29;101929.53;5026896;28;20101;-54
2022/01/24 09:00:54;;;;;;;31.10;10.15;;;;;;;2.71;70.35;101936.34;5027698;28;20095;-58
2022/01/24 09:03:21;;;;;;;26.55;9.63;;;;;;;2.72;70.70;101944.88;5023314;28;20100;-58
2022/01/24 09:05:52;;;;;;;26.73;10.07;;;;;;;2.73;70.50;101947.53;5025035;28;20048;-55
2022/01/24 09:08:19;;;;;;;27.63;9.70;;;;;;;2.76;70.13;101936.59;5025972;28;20045;-60
2022/01/24 09:10:47;;;;;;;27.92;10.65;;;;;;;2.76;70.02;101950.28;5026116;28;20054;-60
2022/01/24 09:13:14;;;;;;;33.40;11.07;;;;;;;2.74;70.21;101949.31;5022924;28;20084;-57
2022/01/24 09:15:41;;;;;;;27.77;10.63;;;;;;;2.70;69.78;101947.34;5025386;28;20072;-58
2022/01/24 09:18:08;;;;;;;32.67;11.40;;;;;;;2.70;69.68;101942.22;5030317;28;20041;-56
2022/01/24 09:20:38;;;;;;;26.70;10.55;;;;;;;2.70;70.24;101938.00;5024436;28;20049;-54
2022/01/24 09:23:07;;;;;;;26.85;10.05;;;;;;;2.69;69.93;101943.03;5027083;28;20076;-53
2022/01/24 09:25:35;;;;;;;31.35;10.35;;;;;;;2.67;70.74;101936.94;5024276;28;20041;-57
2022/01/24 09:28:02;;;;;;;28.35;9.43;;;;;;;2.70;70.86;101945.66;5023322;28;20761;-53
2022/01/24 09:30:30;;;;;;;29.75;10.57;;;;;;;2.69;70.32;101937.91;5026283;28;20397;-57
2022/01/24 09:32:56;;;;;;;26.33;9.48;;;;;;;2.71;70.98;101938.88;5022543;28;20072;-57
2022/01/24 09:35:23;;;;;;;25.63;10.82;;;;;;;2.74;70.22;101944.19;5025811;28;20143;-60
2022/01/24 09:37:50;;;;;;;30.20;11.55;;;;;;;2.75;70.35;101956.19;5023954;28;20443;-56
2022/01/24 09:40:17;;;;;;;27.02;9.40;;;;;;;2.78;69.72;101951.28;5026997;28;20053;-55
2022/01/24 09:42:46;;;;;;;28.27;10.15;;;;;;;2.79;70.17;101953.03;5023625;28;20061;-56
2022/01/24 09:45:14;;;;;;;28.38;10.75;;;;;;;2.77;70.50;101949.47;5028673;28;20053;-57
2022/01/24 09:47:40;;;;;;;27.05;10.02;;;;;;;2.80;69.31;101954.78;5026867;28;20049;-56
2022/01/24 09:50:09;;;;;;;27.25;9.50;;;;;;;2.77;70.55;101949.47;5025153;28;20057;-55
2022/01/24 09:52:39;;;;;;;25.02;9.55;;;;;;;2.76;70.12;101954.50;5025365;28;20049;-56
2022/01/24 09:55:07;;;;;;;28.10;9.63;;;;;;;2.69;69.38;101945.56;5026099;28;20049;-58
2022/01/24 09:57:35;;;;;;;27.27;11.90;;;;;;;2.73;69.58;101947.53;5028221;28;20432;-58
2022/01/24 10:00:05;;;;;;;26.98;9.82;;;;;;;2.75;70.76;101947.63;5024302;28;20676;-56
2022/01/24 10:02:32;;;;;;;25.30;8.68;;;;;;;2.75;69.86;101948.53;5027945;28;20053;-53
2022/01/24 10:05:21;;;;;;;23.27;8.55;;;;;;;2.76;69.59;101942.59;5022666;28;20049;-56
2022/01/24 10:07:50;;;;;;;22.35;9.43;;;;;;;2.83;70.05;101944.75;5033061;28;20131;-54
2022/01/24 10:10:44;;;;;;;28.90;10.07;;;;;;;2.88;70.11;101946.69;5026030;28;20312;-57
2022/01/24 10:16:29;;;;;;;27.52;9.68;;;;;;;2.95;70.38;101953.94;5020882;28;20053;-55
2022/01/24 10:19:01;;;;;;;19.10;7.18;;;;;;;2.91;69.27;101952.00;5024517;28;20045;-57
2022/01/24 10:21:52;;;;;;;21.75;8.57;;;;;;;2.90;69.46;101950.22;5004798;28;20112;-57
2022/01/24 10:24:32;;;;;;;24.95;9.30;;;;;;;2.89;69.11;101957.00;5006310;28;20046;-55
2022/01/24 10:27:18;;;;;;;19.63;8.15;;;;;;;2.92;68.91;101958.88;5021266;28;20049;-58
2022/01/24 10:30:08;;;;;;;21.55;8.48;;;;;;;2.94;69.51;101962.41;5031532;28;20059;-56
2022/01/24 10:32:41;;;;;;;22.90;8.90;;;;;;;2.99;69.80;101963.56;5036659;28;20111;-53
2022/01/24 10:35:45;;;;;;;25.80;10.05;;;;;;;3.05;69.67;101961.38;5022202;28;20084;-54
2022/01/24 10:41:21;;;;;;;23.17;8.02;;;;;;;3.16;69.01;101961.09;5034572;28;20057;-55
2022/01/24 10:43:50;;;;;;;23.67;9.23;;;;;;;3.15;69.92;101960.25;5031001;28;20057;-56
2022/01/24 10:46:27;;;;;;;23.77;9.02;;;;;;;3.18;69.73;101951.84;5025179;28;20056;-56
2022/01/24 10:49:06;;;;;;;25.15;9.05;;;;;;;3.23;69.54;101960.69;5025013;28;20050;-53
2022/01/24 10:51:39;;;;;;;30.17;11.00;;;;;;;3.31;69.50;101954.31;5005797;28;20053;-57
2022/01/24 10:54:06;;;;;;;25.98;10.02;;;;;;;3.36;68.68;101952.03;5005768;28;20512;-53
2022/01/24 10:56:38;;;;;;;25.73;9.43;;;;;;;3.40;68.68;101947.94;5005605;28;20084;-58
2022/01/24 10:59:22;;;;;;;24.98;8.95;;;;;;;3.39;68.99;101943.63;5017449;28;20067;-57
2022/01/24 11:01:52;;;;;;;23.38;8.55;;;;;;;3.34;67.89;101948.47;5022332;28;20042;-55
2022/01/24 11:04:21;;;;;;;23.15;7.95;;;;;;;3.31;68.62;101949.19;5019540;28;20071;-56
2022/01/24 11:06:51;;;;;;;24.65;8.57;;;;;;;3.34;69.12;101949.38;5023283;28;20524;-60
2022/01/24 11:09:23;;;;;;;24.30;8.65;;;;;;;3.40;69.00;101942.84;5023638;28;20067;-51
2022/01/24 11:11:54;;;;;;;22.10;8.10;;;;;;;3.46;69.23;101943.19;5022655;28;20057;-58
2022/01/24 11:14:24;;;;;;;22.25;8.52;;;;;;;3.52;69.35;101948.69;5024114;28;20045;-54
2022/01/24 11:16:52;;;;;;;26.50;8.95;;;;;;;3.55;69.05;101945.41;5019678;28;20046;-58
2022/01/24 11:19:28;;;;;;;20.02;7.43;;;;;;;3.56;68.51;101948.06;5024005;28;20097;-54
2022/01/24 11:21:59;;;;;;;23.00;8.43;;;;;;;3.58;68.42;101946.44;5023225;28;20543;-55
2022/01/24 11:24:38;;;;;;;25.77;8.82;;;;;;;3.62;69.12;101934.72;5022867;28;20053;-57
2022/01/24 11:27:26;;;;;;;24.05;8.90;;;;;;;3.67;68.11;101942.63;5027245;28;20137;-54
2022/01/24 11:29:56;;;;;;;24.90;8.75;;;;;;;3.67;69.19;101942.63;5027452;28;20053;-53
2022/01/24 11:32:27;;;;;;;21.20;8.65;;;;;;;3.65;67.94;101937.41;5028292;28;20517;-59
2022/01/24 11:34:57;;;;;;;23.48;8.50;;;;;;;3.69;68.72;101941.06;5024937;28;20053;-56
2022/01/24 11:37:43;;;;;;;22.38;9.02;;;;;;;3.68;68.46;101942.72;5027046;28;20107;-54
2022/01/24 11:40:15;;;;;;;28.98;9.48;;;;;;;3.73;68.34;101938.75;5027913;28;20049;-52
2022/01/24 11:42:45;;;;;;;24.02;9.75;;;;;;;3.76;68.94;101943.16;5032154;28;20660;-60
2022/01/24 11:45:56;;;;;;;26.75;9.85;;;;;;;3.75;68.00;101941.38;5028036;28;20128;-58
2022/01/24 11:48:24;;;;;;;28.10;9.98;;;;;;;3.82;68.08;101940.94;5027548;28;20103;-55
2022/01/24 11:51:12;;;;;;;24.88;10.30;;;;;;;3.82;68.92;101937.50;5030078;28;20135;-56
2022/01/24 11:53:43;;;;;;;25.92;9.25;;;;;;;3.86;68.14;101939.44;5035955;28;20076;-55
2022/01/24 11:56:21;;;;;;;25.95;10.00;;;;;;;3.86;68.47;101937.72;5028215;28;20658;-58
2022/01/24 11:58:49;;;;;;;24.13;9.70;;;;;;;3.88;67.99;101927.56;5025166;28;20057;-54
2022/01/24 12:01:37;;;;;;;28.83;9.90;;;;;;;3.88;68.28;101916.44;5021122;28;20058;-56
2022/01/24 12:04:05;;;;;;;26.40;9.20;;;;;;;3.84;67.96;101911.16;5039521;28;20061;-58
2022/01/24 12:07:11;;;;;;;20.85;8.80;;;;;;;3.72;68.38;101911.34;5027066;28;20053;-59
2022/01/24 12:09:38;;;;;;;23.27;8.73;;;;;;;3.71;68.05;101918.94;5022667;28;20106;-58
2022/01/24 12:12:44;;;;;;;22.88;8.90;;;;;;;3.68;67.92;101911.97;5031660;28;20073;-55
2022/01/24 12:15:31;;;;;;;27.17;9.30;;;;;;;3.68;68.27;101909.41;5033663;28;20049;-53
2022/01/24 12:18:01;;;;;;;28.42;11.25;;;;;;;3.75;68.70;101900.38;5038361;28;20042;-57
2022/01/24 12:20:47;;;;;;;;;;;;;;;3.77;68.31;101903.91;5026350;28;20053;-58
2022/01/24 12:23:39;;;;;;;25.63;9.93;;;;;;;3.88;68.70;101906.19;5035624;28;20007;-55
2022/01/24 12:26:29;;;;;;;22.08;8.55;;;;;;;3.82;67.85;101902.47;5033713;28;20124;-55
2022/01/24 12:29:01;;;;;;;24.50;9.93;;;;;;;3.82;68.43;101912.72;5027481;28;20444;-56
2022/01/24 12:31:33;;;;;;;25.45;9.68;;;;;;;3.82;68.37;101912.72;5024745;28;20049;-56
2022/01/24 12:34:18;;;;;;;27.73;9.25;;;;;;;3.88;68.40;101906.19;5029253;28;20049;-57
2022/01/24 12:37:00;;;;;;;26.75;10.40;;;;;;;3.96;68.55;101904.94;5026663;28;20053;-57
2022/01/24 12:39:33;;;;;;;21.65;9.05;;;;;;;4.00;68.26;101896.59;5017099;28;20064;-55
2022/01/24 12:42:07;;;;;;;25.23;9.50;;;;;;;3.98;67.52;101893.06;5025054;28;20061;-56
2022/01/24 12:47:26;;;;;;;27.05;10.57;;;;;;;3.95;67.82;101898.03;5031291;28;20577;-57
2022/01/24 12:49:56;;;;;;;25.73;11.05;;;;;;;3.96;68.45;101895.53;5022711;28;20049;-54
2022/01/24 12:52:27;;;;;;;25.60;9.73;;;;;;;3.98;68.35;101893.06;5015356;28;20741;-58
2022/01/24 12:55:02;;;;;;;22.33;8.43;;;;;;;4.02;68.17;101881.31;5022559;28;20053;-55
2022/01/24 12:57:32;;;;;;;26.58;10.43;;;;;;;3.99;68.31;101885.44;5027048;28;20059;-58